createdAt,value
2022-08-22T00:01:33.133Z,62.31
2022-08-22T00:02:47.466Z,54.36
2022-08-22T00:02:58.277Z,57.74
2022-08-22T00:02:59.073Z,60.53
2022-08-22T00:02:59.391Z,61.67
2022-08-22T00:03:15.359Z,60.39
2022-08-22T00:04:14.629Z,62.47
2022-08-22T00:06:56.665Z,62.50
2022-08-22T00:09:41.542Z,62.36
2022-08-22T00:12:22.876Z,62.27
2022-08-22T00:15:05.069Z,62.44
2022-08-22T00:17:48.415Z,62.58
2022-08-22T00:20:26.109Z,62.48
2022-08-22T00:23:11.710Z,62.73
2022-08-22T00:25:51.572Z,62.66
2022-08-22T00:28:26.767Z,62.75
2022-08-22T00:31:03.589Z,62.69
2022-08-22T00:33:38.106Z,62.74
2022-08-22T00:36:20.546Z,62.93
2022-08-22T00:38:59.959Z,62.80
2022-08-22T00:41:50.955Z,62.71
2022-08-22T00:44:56.040Z,62.84
2022-08-22T00:47:52.947Z,62.78
2022-08-22T00:50:55.722Z,62.84
2022-08-22T00:53:44.503Z,62.92
2022-08-22T00:56:37.732Z,62.94
2022-08-22T00:59:35.863Z,63.24
2022-08-22T01:02:25.479Z,63.37
2022-08-22T01:05:12.136Z,63.55
2022-08-22T01:08:13.531Z,63.46
2022-08-22T01:10:59.412Z,63.78
2022-08-22T01:14:06.446Z,63.75
2022-08-22T01:17:00.813Z,63.98
2022-08-22T01:20:10.668Z,64.22
2022-08-22T01:23:19.393Z,64.22
2022-08-22T01:26:38.886Z,64.34
2022-08-22T01:29:39.321Z,64.47
2022-08-22T01:32:46.083Z,64.59
2022-08-22T01:35:38.249Z,64.71
2022-08-22T01:38:27.158Z,64.64
2022-08-22T01:41:38.786Z,64.56
2022-08-22T01:44:39.366Z,64.51
2022-08-22T01:47:15.912Z,64.74
2022-08-22T01:49:55.392Z,64.78
2022-08-22T01:52:45.813Z,64.90
2022-08-22T01:55:33.644Z,65.00
2022-08-22T01:58:21.280Z,65.17
2022-08-22T02:01:08.438Z,65.07
2022-08-22T02:03:53.578Z,65.06
2022-08-22T02:06:34.039Z,64.85
2022-08-22T02:09:12.078Z,64.90
2022-08-22T02:11:49.753Z,64.68
2022-08-22T02:14:37.733Z,64.74
2022-08-22T02:17:21.387Z,64.72
2022-08-22T02:20:00.153Z,64.85
2022-08-22T02:22:44.645Z,64.91
2022-08-22T02:25:22.762Z,64.73
2022-08-22T02:28:00.070Z,64.77
2022-08-22T02:30:48.991Z,64.67
2022-08-22T02:33:34.100Z,64.68
2022-08-22T02:36:16.737Z,64.62
2022-08-22T02:39:00.489Z,64.86
2022-08-22T02:41:44.971Z,64.90
2022-08-22T02:44:22.400Z,65.06
2022-08-22T02:47:02.764Z,65.09
2022-08-22T02:49:47.170Z,65.24
2022-08-22T02:52:24.465Z,65.39
2022-08-22T02:55:03.656Z,65.76
2022-08-22T02:57:41.778Z,65.72
2022-08-22T03:00:33.050Z,65.46
2022-08-22T03:03:17.046Z,65.28
2022-08-22T03:06:02.114Z,65.21
2022-08-22T03:08:38.009Z,65.28
2022-08-22T03:11:22.932Z,65.20
2022-08-22T03:14:05.008Z,65.32
2022-08-22T03:16:45.958Z,65.49
2022-08-22T03:19:26.317Z,65.62
2022-08-22T03:22:02.393Z,65.86
2022-08-22T03:24:40.427Z,65.90
2022-08-22T03:27:32.278Z,65.66
2022-08-22T03:30:11.901Z,65.74
2022-08-22T03:32:59.737Z,65.84
2022-08-22T03:35:56.053Z,66.04
2022-08-22T03:38:44.682Z,65.73
2022-08-22T03:41:40.307Z,65.72
2022-08-22T03:44:49.099Z,65.93
2022-08-22T03:47:49.708Z,66.08
2022-08-22T03:50:58.718Z,66.13
2022-08-22T03:53:51.695Z,66.08
2022-08-22T03:57:00.265Z,66.10
2022-08-22T04:00:00.615Z,66.05
2022-08-22T04:03:00.494Z,66.06
2022-08-22T04:05:55.676Z,65.99
2022-08-22T04:08:43.981Z,65.98
2022-08-22T04:11:41.517Z,65.98
2022-08-22T04:14:34.269Z,65.83
2022-08-22T04:17:45.504Z,65.92
2022-08-22T04:20:52.614Z,65.79
2022-08-22T04:23:50.394Z,66.02
2022-08-22T04:26:30.607Z,66.07
2022-08-22T04:29:09.208Z,65.93
2022-08-22T04:31:48.752Z,65.83
2022-08-22T04:34:28.194Z,65.90
2022-08-22T04:37:04.975Z,65.44
2022-08-22T04:39:46.825Z,65.07
2022-08-22T04:42:33.056Z,64.83
2022-08-22T04:45:11.178Z,63.46
2022-08-22T04:47:47.150Z,62.39
2022-08-22T04:50:34.005Z,61.08
2022-08-22T04:53:23.563Z,59.77
2022-08-22T04:56:07.664Z,58.25
2022-08-22T04:58:56.770Z,57.19
2022-08-22T05:01:46.870Z,56.18
2022-08-22T05:04:24.173Z,54.04
2022-08-22T05:06:59.976Z,53.04
2022-08-22T05:09:37.564Z,52.26
2022-08-22T05:12:14.963Z,51.40
2022-08-22T05:14:50.178Z,49.87
2022-08-22T05:17:30.311Z,48.73
2022-08-22T05:20:08.048Z,47.80
2022-08-22T05:22:46.357Z,47.32
2022-08-22T05:25:25.154Z,46.11
2022-08-22T05:28:08.516Z,45.41
2022-08-22T05:30:41.589Z,44.46
2022-08-22T05:33:21.116Z,43.64
2022-08-22T05:35:58.570Z,42.43
2022-08-22T05:38:35.599Z,41.50
2022-08-22T05:41:11.993Z,40.50
2022-08-22T05:43:46.480Z,39.28
2022-08-22T05:46:26.864Z,38.96
2022-08-22T05:49:02.632Z,37.65
2022-08-22T05:51:47.108Z,36.70
2022-08-22T05:54:34.365Z,36.32
2022-08-22T05:57:18.079Z,36.08
2022-08-22T05:59:55.583Z,35.86
2022-08-22T06:02:40.396Z,35.91
2022-08-22T06:05:13.748Z,35.14
2022-08-22T06:07:50.167Z,34.92
2022-08-22T06:10:27.790Z,34.76
2022-08-22T06:13:11.695Z,34.39
2022-08-22T06:15:49.794Z,33.81
2022-08-22T06:18:26.179Z,33.13
2022-08-22T06:21:03.938Z,32.30
2022-08-22T06:23:41.741Z,31.57
2022-08-22T06:26:20.909Z,31.09
2022-08-22T06:28:59.049Z,30.13
2022-08-22T06:31:39.210Z,29.65
2022-08-22T06:34:15.367Z,28.34
2022-08-22T06:36:50.708Z,27.65
2022-08-22T06:39:23.323Z,26.94
2022-08-22T06:42:01.189Z,26.44
2022-08-22T06:44:37.436Z,25.75
2022-08-22T06:47:16.622Z,25.38
2022-08-22T06:49:49.561Z,25.41
2022-08-22T06:52:24.563Z,24.65
2022-08-22T06:55:03.756Z,24.51
2022-08-22T06:57:38.768Z,24.02
2022-08-22T07:00:16.465Z,23.34
2022-08-22T07:02:52.785Z,22.99
2022-08-22T07:05:28.290Z,23.43
2022-08-22T07:08:06.305Z,23.25
2022-08-22T07:10:41.725Z,23.13
2022-08-22T07:13:17.986Z,23.18
2022-08-22T07:15:56.324Z,22.98
2022-08-22T07:18:31.958Z,22.78
2022-08-22T07:21:08.459Z,22.23
2022-08-22T07:23:48.212Z,22.36
2022-08-22T07:26:34.955Z,23.15
2022-08-22T07:29:18.279Z,24.10
2022-08-22T07:31:56.534Z,25.31
2022-08-22T07:34:44.784Z,26.09
2022-08-22T07:37:28.855Z,27.11
2022-08-22T07:40:09.556Z,27.30
2022-08-22T07:42:50.233Z,27.19
2022-08-22T07:45:34.217Z,27.42
2022-08-22T07:48:26.245Z,26.72
2022-08-22T07:51:06.218Z,26.53
2022-08-22T07:53:43.417Z,26.52
2022-08-22T07:56:21.999Z,26.02
2022-08-22T07:59:12.941Z,26.77
2022-08-22T08:01:50.370Z,26.85
2022-08-22T08:04:26.610Z,27.25
2022-08-22T08:07:01.770Z,27.11
2022-08-22T08:09:38.667Z,27.17
2022-08-22T08:12:14.129Z,27.23
2022-08-22T08:14:51.120Z,26.88
2022-08-22T08:17:31.879Z,26.79
2022-08-22T08:20:09.881Z,26.27
2022-08-22T08:22:45.061Z,26.31
2022-08-22T08:25:21.092Z,26.13
2022-08-22T08:28:19.888Z,25.87
2022-08-22T08:31:00.847Z,26.05
2022-08-22T08:33:36.279Z,25.97
2022-08-22T08:36:16.631Z,25.25
2022-08-22T08:38:54.642Z,25.48
2022-08-22T08:41:43.927Z,25.87
2022-08-22T08:44:29.392Z,25.96
2022-08-22T08:47:22.928Z,26.02
2022-08-22T08:50:18.744Z,26.95
2022-08-22T08:53:26.640Z,27.59
2022-08-22T08:56:05.256Z,27.88
2022-08-22T08:58:48.813Z,28.10
2022-08-22T09:02:00.307Z,28.22
2022-08-22T09:05:03.207Z,28.00
2022-08-22T09:07:57.200Z,27.65
2022-08-22T09:10:57.298Z,28.01
2022-08-22T09:13:48.981Z,28.41
2022-08-22T09:16:51.794Z,28.38
2022-08-22T09:19:47.735Z,28.54
2022-08-22T09:22:59.110Z,28.21
2022-08-22T09:25:38.699Z,27.41
2022-08-22T09:28:19.933Z,27.86
2022-08-22T09:31:16.615Z,29.09
2022-08-22T09:34:00.190Z,30.53
2022-08-22T09:36:50.135Z,31.42
2022-08-22T09:39:34.411Z,32.25
2022-08-22T09:42:12.760Z,32.92
2022-08-22T09:44:59.410Z,33.51
2022-08-22T09:47:39.307Z,34.09
2022-08-22T09:50:19.278Z,34.62
2022-08-22T09:53:05.383Z,35.12
2022-08-22T09:55:53.740Z,35.45
2022-08-22T09:58:41.565Z,35.87
2022-08-22T10:01:25.952Z,36.18
2022-08-22T10:04:40.301Z,36.58
2022-08-22T10:07:38.392Z,36.66
2022-08-22T10:10:24.599Z,36.72
2022-08-22T10:13:10.521Z,36.92
2022-08-22T10:15:50.211Z,37.09
2022-08-22T10:18:34.623Z,37.37
2022-08-22T10:21:13.495Z,37.28
2022-08-22T10:23:54.134Z,37.75
2022-08-22T10:26:38.641Z,37.68
2022-08-22T10:29:41.221Z,38.11
2022-08-22T10:32:27.469Z,38.53
2022-08-22T10:35:06.335Z,39.00
2022-08-22T10:37:50.567Z,39.34
2022-08-22T10:40:28.921Z,39.48
2022-08-22T10:43:09.281Z,39.78
2022-08-22T10:45:46.373Z,39.74
2022-08-22T10:48:42.530Z,39.76
2022-08-22T10:51:24.784Z,40.22
2022-08-22T10:54:20.151Z,40.23
2022-08-22T10:57:03.729Z,40.73
2022-08-22T10:59:50.723Z,40.52
2022-08-22T11:02:38.731Z,40.42
2022-08-22T11:05:36.288Z,40.60
2022-08-22T11:08:21.899Z,40.96
2022-08-22T11:11:06.979Z,41.07
2022-08-22T11:13:47.070Z,41.28
2022-08-22T11:16:36.603Z,41.16
2022-08-22T11:19:27.562Z,41.42
2022-08-22T11:22:16.198Z,41.41
2022-08-22T11:25:12.909Z,41.73
2022-08-22T11:28:00.261Z,41.97
2022-08-22T11:30:43.923Z,42.34
2022-08-22T11:33:39.068Z,42.66
2022-08-22T11:36:37.085Z,42.44
2022-08-22T11:39:24.468Z,42.54
2022-08-22T11:42:06.566Z,42.55
2022-08-22T11:44:50.222Z,41.99
2022-08-22T11:47:26.813Z,41.84
2022-08-22T11:50:13.388Z,41.57
2022-08-22T11:53:17.231Z,41.37
2022-08-22T11:56:00.052Z,41.53
2022-08-22T11:58:50.211Z,41.32
2022-08-22T12:01:34.350Z,41.39
2022-08-22T12:04:18.724Z,41.34
2022-08-22T12:06:59.427Z,41.37
2022-08-22T12:09:44.506Z,41.23
2022-08-22T12:12:42.201Z,41.01
2022-08-22T12:15:24.421Z,41.04
2022-08-22T12:18:25.406Z,41.09
2022-08-22T12:21:24.758Z,41.07
2022-08-22T12:24:20.759Z,41.15
2022-08-22T12:27:09.161Z,40.96
2022-08-22T12:29:46.135Z,40.89
2022-08-22T12:32:50.312Z,40.81
2022-08-22T12:35:40.319Z,40.70
2022-08-22T12:38:30.701Z,40.72
2022-08-22T12:41:38.552Z,41.00
2022-08-22T12:44:33.795Z,40.89
2022-08-22T12:47:21.915Z,40.78
2022-08-22T12:50:16.578Z,40.83
2022-08-22T12:53:18.238Z,40.71
2022-08-22T12:56:04.054Z,40.91
2022-08-22T12:58:52.344Z,41.18
2022-08-22T13:01:34.120Z,41.22
2022-08-22T13:04:13.319Z,41.41
2022-08-22T13:07:22.875Z,41.33
2022-08-22T13:10:00.898Z,41.57
2022-08-22T13:12:44.037Z,41.69
2022-08-22T13:15:29.378Z,41.58
2022-08-22T13:18:19.183Z,41.61
2022-08-22T13:20:59.503Z,41.73
2022-08-22T13:23:39.885Z,41.85
2022-08-22T13:26:31.628Z,42.00
2022-08-22T13:29:25.824Z,42.03
2022-08-22T13:32:01.926Z,42.18
2022-08-22T13:34:45.811Z,41.90
2022-08-22T13:37:24.606Z,41.68
2022-08-22T13:40:03.218Z,41.90
2022-08-22T13:42:47.804Z,41.75
2022-08-22T13:45:26.605Z,41.47
2022-08-22T13:48:03.695Z,41.53
2022-08-22T13:50:53.506Z,41.26
2022-08-22T13:53:35.655Z,41.17
2022-08-22T13:56:15.992Z,40.95
2022-08-22T13:58:52.536Z,40.98
2022-08-22T14:01:39.106Z,40.66
2022-08-22T14:04:35.590Z,40.33
2022-08-22T14:07:31.703Z,40.41
2022-08-22T14:10:14.871Z,40.13
2022-08-22T14:13:22.720Z,39.92
2022-08-22T14:16:02.621Z,39.37
2022-08-22T14:18:45.506Z,39.28
2022-08-22T14:21:40.618Z,39.27
2022-08-22T14:24:28.456Z,39.18
2022-08-22T14:27:06.469Z,39.48
2022-08-22T14:29:50.220Z,39.70
2022-08-22T14:32:48.198Z,40.10
2022-08-22T14:35:34.681Z,39.95
2022-08-22T14:38:27.283Z,40.32
2022-08-22T14:41:06.309Z,40.36
2022-08-22T14:43:51.241Z,40.74
2022-08-22T14:46:28.167Z,41.00
2022-08-22T14:49:28.882Z,40.92
2022-08-22T14:52:06.812Z,41.34
2022-08-22T14:54:42.587Z,41.72
2022-08-22T14:57:20.195Z,41.80
2022-08-22T14:59:55.080Z,42.23
2022-08-22T15:02:32.739Z,42.30
2022-08-22T15:05:19.224Z,42.65
2022-08-22T15:08:00.393Z,43.26
2022-08-22T15:10:36.565Z,43.75
2022-08-22T15:13:13.230Z,43.52
2022-08-22T15:15:54.195Z,43.84
2022-08-22T15:18:38.981Z,44.18
2022-08-22T15:21:24.103Z,44.36
2022-08-22T15:24:01.121Z,44.41
2022-08-22T15:26:36.986Z,44.53
2022-08-22T15:29:18.078Z,44.87
2022-08-22T15:31:56.415Z,44.68
2022-08-22T15:34:47.777Z,44.87
2022-08-22T15:37:34.005Z,45.06
2022-08-22T15:40:14.980Z,45.21
2022-08-22T15:42:50.263Z,45.47
2022-08-22T15:45:34.827Z,45.60
2022-08-22T15:48:25.013Z,45.81
2022-08-22T15:51:02.728Z,45.91
2022-08-22T15:53:59.491Z,46.32
2022-08-22T15:56:34.384Z,46.34
2022-08-22T15:59:53.816Z,46.32
2022-08-22T16:02:33.283Z,46.85
2022-08-22T16:05:23.187Z,47.21
2022-08-22T16:08:04.744Z,47.21
2022-08-22T16:10:42.947Z,47.09
2022-08-22T16:13:38.280Z,47.40
2022-08-22T16:16:33.520Z,47.27
2022-08-22T16:19:19.703Z,47.64
2022-08-22T16:22:13.974Z,48.01
2022-08-22T16:25:17.215Z,48.20
2022-08-22T16:27:59.180Z,48.36
2022-08-22T16:30:39.288Z,48.44
2022-08-22T16:33:17.978Z,48.27
2022-08-22T16:36:26.047Z,48.62
2022-08-22T16:39:00.196Z,48.46
2022-08-22T16:41:40.455Z,48.56
2022-08-22T16:44:44.780Z,48.68
2022-08-22T16:47:19.977Z,48.53
2022-08-22T16:50:09.865Z,48.97
2022-08-22T16:53:07.120Z,49.32
2022-08-22T16:56:00.670Z,49.16
2022-08-22T16:59:01.068Z,49.41
2022-08-22T17:02:02.217Z,49.37
2022-08-22T17:04:42.179Z,49.49
2022-08-22T17:07:34.574Z,50.01
2022-08-22T17:10:21.313Z,49.65
2022-08-22T17:13:17.128Z,49.92
2022-08-22T17:16:02.755Z,50.08
2022-08-22T17:18:52.790Z,50.19
2022-08-22T17:21:30.838Z,50.24
2022-08-22T17:24:32.012Z,50.28
2022-08-22T17:27:19.881Z,50.48
2022-08-22T17:30:07.147Z,50.63
2022-08-22T17:32:59.917Z,50.61
2022-08-22T17:35:55.258Z,51.00
2022-08-22T17:38:43.949Z,51.07
2022-08-22T17:41:30.457Z,51.31
2022-08-22T17:44:12.537Z,51.50
2022-08-22T17:46:49.832Z,51.43
2022-08-22T17:49:36.805Z,51.62
2022-08-22T17:52:16.018Z,51.82
2022-08-22T17:54:53.675Z,51.67
2022-08-22T17:57:31.753Z,52.03
2022-08-22T18:00:09.783Z,52.20
2022-08-22T18:02:47.820Z,52.28
2022-08-22T18:05:25.414Z,52.44
2022-08-22T18:08:05.939Z,52.49
2022-08-22T18:10:47.379Z,52.63
2022-08-22T18:13:37.676Z,52.82
2022-08-22T18:16:20.100Z,52.61
2022-08-22T18:19:03.208Z,52.91
2022-08-22T18:21:42.234Z,52.78
2022-08-22T18:24:23.822Z,53.00
2022-08-22T18:27:01.913Z,52.90
2022-08-22T18:29:44.919Z,53.06
2022-08-22T18:32:26.886Z,53.10
2022-08-22T18:35:07.844Z,53.50
2022-08-22T18:37:50.906Z,53.54
2022-08-22T18:40:32.529Z,53.68
2022-08-22T18:43:15.588Z,53.74
2022-08-22T18:46:03.862Z,53.55
2022-08-22T18:49:05.444Z,53.63
2022-08-22T18:51:38.822Z,53.65
2022-08-22T18:54:37.280Z,53.78
2022-08-22T18:57:30.553Z,53.88
2022-08-22T19:00:12.761Z,54.12
2022-08-22T19:03:10.839Z,54.17
2022-08-22T19:06:20.418Z,54.34
2022-08-22T19:09:05.480Z,54.58
2022-08-22T19:11:54.362Z,54.80
2022-08-22T19:14:48.869Z,55.00
2022-08-22T19:17:36.988Z,55.02
2022-08-22T19:20:38.956Z,55.15
2022-08-22T19:23:49.410Z,55.38
2022-08-22T19:26:44.145Z,55.53
2022-08-22T19:29:51.025Z,55.69
2022-08-22T19:32:55.550Z,55.77
2022-08-22T19:35:31.922Z,56.14
2022-08-22T19:38:07.309Z,56.18
2022-08-22T19:40:59.145Z,56.39
2022-08-22T19:43:36.864Z,56.52
2022-08-22T19:46:12.878Z,56.68
2022-08-22T19:48:48.845Z,56.90
2022-08-22T19:51:31.228Z,56.88
2022-08-22T19:54:21.776Z,57.00
2022-08-22T19:57:13.709Z,56.91
2022-08-22T20:00:00.418Z,57.32
2022-08-22T20:02:37.662Z,57.29
2022-08-22T20:05:21.515Z,57.25
2022-08-22T20:08:11.219Z,57.65
2022-08-22T20:10:56.928Z,57.77
2022-08-22T20:13:31.718Z,57.83
2022-08-22T20:16:13.593Z,57.93
2022-08-22T20:19:16.355Z,58.09
2022-08-22T20:21:55.039Z,58.31
2022-08-22T20:24:40.084Z,58.42
2022-08-22T20:27:18.427Z,58.61
2022-08-22T20:30:03.003Z,58.65
2022-08-22T20:32:40.637Z,59.23
2022-08-22T20:35:18.511Z,59.26
2022-08-22T20:38:06.689Z,59.31
2022-08-22T20:40:55.004Z,59.44
2022-08-22T20:43:35.383Z,59.63
2022-08-22T20:46:23.989Z,59.68
2022-08-22T20:48:57.665Z,60.03
2022-08-22T20:51:32.359Z,60.07
2022-08-22T20:54:10.472Z,60.24
2022-08-22T20:56:53.604Z,60.33
2022-08-22T20:59:36.006Z,60.53
2022-08-22T21:02:13.756Z,60.64
2022-08-22T21:04:52.980Z,60.70
2022-08-22T21:07:28.669Z,60.87
2022-08-22T21:10:23.137Z,61.12
2022-08-22T21:13:11.444Z,61.24
2022-08-22T21:15:46.291Z,61.33
2022-08-22T21:18:29.968Z,61.30
2022-08-22T21:21:17.850Z,61.36
2022-08-22T21:23:54.006Z,61.58
2022-08-22T21:26:30.517Z,61.68
2022-08-22T21:29:06.523Z,61.88
2022-08-22T21:31:45.951Z,62.11
2022-08-22T21:34:22.012Z,62.22
2022-08-22T21:36:57.933Z,62.34
2022-08-22T21:39:33.900Z,62.46
2022-08-22T21:42:17.842Z,62.71
2022-08-22T21:44:58.850Z,62.97
2022-08-22T21:47:34.669Z,62.89
2022-08-22T21:50:18.713Z,62.99
2022-08-22T21:53:10.095Z,63.19
2022-08-22T21:55:47.002Z,63.07
2022-08-22T21:58:35.892Z,63.19
2022-08-22T22:01:30.713Z,63.42
2022-08-22T22:04:03.616Z,63.26
2022-08-22T22:06:35.757Z,63.42
2022-08-22T22:09:09.989Z,63.83
2022-08-22T22:11:45.282Z,63.64
2022-08-22T22:14:17.559Z,63.62
2022-08-22T22:16:49.572Z,63.65
2022-08-22T22:19:21.621Z,63.76
2022-08-22T22:21:54.716Z,63.89
2022-08-22T22:24:26.973Z,64.05
2022-08-22T22:26:59.480Z,64.24
2022-08-22T22:29:31.501Z,64.20
2022-08-22T22:32:03.745Z,64.33
2022-08-22T22:34:37.134Z,64.43
2022-08-22T22:37:11.959Z,64.51
2022-08-22T22:39:44.709Z,64.55
2022-08-22T22:42:16.954Z,64.57
2022-08-22T22:44:49.067Z,64.54
2022-08-22T22:47:26.653Z,64.74
2022-08-22T22:49:59.012Z,64.81
2022-08-22T22:52:31.245Z,65.04
2022-08-22T22:55:03.305Z,64.95
2022-08-22T22:57:41.354Z,65.05
2022-08-22T23:00:17.335Z,65.22
2022-08-22T23:02:49.500Z,65.48
2022-08-22T23:05:21.710Z,65.30
2022-08-22T23:07:53.744Z,65.68
2022-08-22T23:10:26.309Z,65.80
2022-08-22T23:12:58.417Z,65.80
2022-08-22T23:15:30.593Z,65.86
2022-08-22T23:18:03.054Z,66.13
2022-08-22T23:20:35.211Z,66.20
2022-08-22T23:23:07.328Z,66.24
2022-08-22T23:25:39.407Z,66.38
2022-08-22T23:28:11.640Z,66.62
2022-08-22T23:30:44.193Z,66.87
2022-08-22T23:33:16.921Z,67.22
2022-08-22T23:35:49.006Z,67.27
2022-08-22T23:38:21.013Z,67.25
2022-08-22T23:40:54.116Z,67.06
2022-08-22T23:43:26.210Z,67.31
2022-08-22T23:45:58.234Z,67.28
2022-08-22T23:48:30.506Z,67.42
2022-08-22T23:51:02.522Z,67.61
2022-08-22T23:53:35.026Z,67.77
2022-08-22T23:56:19.450Z,67.86
2022-08-22T23:58:53.346Z,68.20
